createdAt,value
2022-11-14T00:00:48.203Z,74.37
2022-11-14T00:03:33.788Z,73.70
2022-11-14T00:06:19.788Z,74.86
2022-11-14T00:09:05.741Z,73.90
2022-11-14T00:11:51.480Z,74.36
2022-11-14T00:14:37.396Z,75.20
2022-11-14T00:17:23.240Z,74.36
2022-11-14T00:20:10.292Z,73.41
2022-11-14T00:22:56.848Z,73.94
2022-11-14T00:25:43.919Z,73.74
2022-11-14T00:28:29.964Z,73.35
2022-11-14T00:31:16.439Z,73.38
2022-11-14T00:34:02.050Z,73.42
2022-11-14T00:36:47.652Z,72.92
2022-11-14T00:39:33.464Z,72.73
2022-11-14T00:42:19.093Z,72.74
2022-11-14T00:45:05.275Z,72.80
2022-11-14T00:47:51.078Z,72.33
2022-11-14T00:50:38.012Z,72.74
2022-11-14T00:53:23.781Z,73.16
2022-11-14T00:56:09.479Z,73.02
2022-11-14T00:58:55.319Z,72.97
2022-11-14T01:01:41.122Z,72.70
2022-11-14T01:04:26.664Z,71.25
2022-11-14T01:07:12.411Z,71.91
2022-11-14T01:09:58.013Z,71.99
2022-11-14T01:12:43.727Z,71.99
2022-11-14T01:15:29.483Z,71.12
2022-11-14T01:18:17.182Z,72.17
2022-11-14T01:21:07.046Z,73.66
2022-11-14T01:23:52.839Z,72.60
2022-11-14T01:26:38.535Z,72.86
2022-11-14T01:29:24.291Z,72.79
2022-11-14T01:32:10.424Z,72.07
2022-11-14T01:34:55.980Z,72.44
2022-11-14T01:37:41.732Z,73.78
2022-11-14T01:40:27.565Z,73.06
2022-11-14T01:43:19.601Z,73.00
2022-11-14T01:46:15.525Z,73.29
2022-11-14T01:49:21.660Z,72.47
2022-11-14T01:52:13.845Z,73.25
2022-11-14T01:55:01.338Z,73.10
2022-11-14T01:57:47.193Z,73.83
2022-11-14T02:00:33.060Z,73.87
2022-11-14T02:03:18.824Z,73.19
2022-11-14T02:06:04.696Z,72.47
2022-11-14T02:08:51.191Z,72.76
2022-11-14T02:11:38.249Z,72.40
2022-11-14T02:14:24.160Z,73.90
2022-11-14T02:17:39.950Z,73.38
2022-11-14T02:20:20.004Z,71.98
2022-11-14T02:23:05.959Z,73.12
2022-11-14T02:25:51.612Z,73.17
2022-11-14T02:28:37.288Z,73.00
2022-11-14T02:31:22.851Z,72.42
2022-11-14T02:34:08.710Z,73.17
2022-11-14T02:36:54.418Z,72.52
2022-11-14T02:39:40.804Z,72.22
2022-11-14T02:42:26.502Z,73.20
2022-11-14T02:45:12.215Z,72.72
2022-11-14T02:47:57.956Z,71.96
2022-11-14T02:50:43.889Z,72.20
2022-11-14T02:53:29.683Z,72.87
2022-11-14T02:56:15.380Z,72.53
2022-11-14T02:59:01.037Z,72.34
2022-11-14T03:01:46.863Z,71.33
2022-11-14T03:04:33.002Z,71.28
2022-11-14T03:07:18.800Z,69.89
2022-11-14T03:10:05.544Z,71.26
2022-11-14T03:12:55.072Z,71.83
2022-11-14T03:15:40.934Z,71.05
2022-11-14T03:18:26.734Z,71.37
2022-11-14T03:21:15.100Z,70.71
2022-11-14T03:24:01.084Z,71.16
2022-11-14T03:26:46.903Z,71.57
2022-11-14T03:29:32.640Z,71.08
2022-11-14T03:32:18.331Z,70.93
2022-11-14T03:35:04.405Z,71.99
2022-11-14T03:37:52.766Z,72.08
2022-11-14T03:40:41.676Z,73.15
2022-11-14T03:43:32.326Z,71.98
2022-11-14T03:46:18.400Z,71.32
2022-11-14T03:49:04.383Z,72.47
2022-11-14T03:51:50.746Z,72.16
2022-11-14T03:54:36.468Z,73.41
2022-11-14T03:57:22.103Z,72.55
2022-11-14T04:00:08.487Z,72.22
2022-11-14T04:02:57.111Z,73.28
2022-11-14T04:05:45.999Z,72.41
2022-11-14T04:08:32.381Z,72.93
2022-11-14T04:11:18.993Z,73.92
2022-11-14T04:14:04.792Z,73.22
2022-11-14T04:16:50.619Z,73.80
2022-11-14T04:19:36.497Z,74.10
2022-11-14T04:22:22.005Z,74.14
2022-11-14T04:25:08.683Z,73.37
2022-11-14T04:27:54.763Z,73.68
2022-11-14T04:30:40.402Z,73.75
2022-11-14T04:33:26.508Z,77.67
2022-11-14T04:36:12.352Z,76.22
2022-11-14T04:38:58.025Z,78.16
2022-11-14T04:41:43.772Z,75.87
2022-11-14T04:44:29.452Z,75.26
2022-11-14T04:47:15.200Z,77.03
2022-11-14T04:50:00.821Z,76.04
2022-11-14T04:52:46.400Z,75.78
2022-11-14T04:55:32.245Z,76.23
2022-11-14T04:58:17.792Z,76.16
2022-11-14T05:01:10.175Z,74.86
2022-11-14T05:03:56.181Z,75.08
2022-11-14T05:06:41.986Z,74.34
2022-11-14T05:09:29.112Z,74.97
2022-11-14T05:12:14.971Z,74.94
2022-11-14T05:15:00.630Z,74.32
2022-11-14T05:17:46.240Z,74.37
2022-11-14T05:20:32.143Z,74.12
2022-11-14T05:23:23.450Z,73.75
2022-11-14T05:26:10.883Z,73.57
2022-11-14T05:28:56.826Z,74.44
2022-11-14T05:31:42.578Z,73.89
2022-11-14T05:34:28.364Z,73.46
2022-11-14T05:37:14.196Z,74.28
2022-11-14T05:39:59.872Z,75.41
2022-11-14T05:42:45.573Z,74.90
2022-11-14T05:45:31.467Z,74.20
2022-11-14T05:48:17.062Z,73.90
2022-11-14T05:51:03.874Z,72.73
2022-11-14T05:53:49.913Z,72.52
2022-11-14T05:56:35.808Z,72.38
2022-11-14T05:59:21.905Z,70.98
2022-11-14T06:02:07.603Z,73.50
2022-11-14T06:04:54.005Z,72.47
2022-11-14T06:07:40.117Z,72.57
2022-11-14T06:10:26.112Z,73.43
2022-11-14T06:13:11.852Z,73.34
2022-11-14T06:16:04.572Z,72.12
2022-11-14T06:18:52.791Z,71.96
2022-11-14T06:21:38.851Z,70.62
2022-11-14T06:24:24.586Z,71.72
2022-11-14T06:27:10.298Z,72.28
2022-11-14T06:29:55.841Z,71.41
2022-11-14T06:32:41.637Z,71.61
2022-11-14T06:35:27.562Z,71.42
2022-11-14T06:38:13.446Z,71.11
2022-11-14T06:41:06.245Z,69.85
2022-11-14T06:43:55.449Z,71.33
2022-11-14T06:46:41.085Z,71.75
2022-11-14T06:49:27.863Z,71.97
2022-11-14T06:52:13.761Z,71.44
2022-11-14T06:54:59.435Z,71.20
2022-11-14T06:57:45.284Z,71.33
2022-11-14T07:00:31.336Z,70.72
2022-11-14T07:03:17.536Z,70.05
2022-11-14T07:06:03.768Z,69.75
2022-11-14T07:08:49.350Z,70.22
2022-11-14T07:11:35.074Z,69.02
2022-11-14T07:14:20.908Z,69.78
2022-11-14T07:17:06.899Z,69.90
2022-11-14T07:19:52.856Z,69.22
2022-11-14T07:22:38.840Z,69.31
2022-11-14T07:25:24.645Z,69.30
2022-11-14T07:28:10.545Z,68.49
2022-11-14T07:30:56.273Z,68.30
2022-11-14T07:33:41.997Z,67.79
2022-11-14T07:36:28.477Z,68.79
2022-11-14T07:39:14.490Z,69.82
2022-11-14T07:42:00.339Z,68.75
2022-11-14T07:44:46.142Z,68.28
2022-11-14T07:47:31.843Z,65.85
2022-11-14T07:50:20.572Z,66.82
2022-11-14T07:53:08.762Z,67.21
2022-11-14T07:55:57.102Z,67.17
2022-11-14T07:58:46.525Z,68.66
2022-11-14T08:01:32.892Z,69.81
2022-11-14T08:04:19.071Z,68.91
2022-11-14T08:07:04.821Z,67.54
2022-11-14T08:09:50.870Z,67.38
2022-11-14T08:12:38.565Z,67.09
2022-11-14T08:15:24.554Z,68.81
2022-11-14T08:18:10.641Z,68.91
2022-11-14T08:20:57.678Z,73.57
2022-11-14T08:23:45.318Z,73.53
2022-11-14T08:26:34.231Z,74.24
2022-11-14T08:29:21.077Z,72.76
2022-11-14T08:32:06.741Z,73.12
2022-11-14T08:34:52.559Z,75.10
2022-11-14T08:37:38.315Z,71.82
2022-11-14T08:40:24.010Z,70.49
2022-11-14T08:43:11.694Z,69.93
2022-11-14T08:46:02.236Z,72.02
2022-11-14T08:48:48.494Z,71.01
2022-11-14T08:51:36.443Z,73.98
2022-11-14T08:54:22.458Z,72.47
2022-11-14T08:57:08.336Z,72.53
2022-11-14T08:59:55.435Z,74.34
2022-11-14T09:02:41.476Z,71.39
2022-11-14T09:05:27.235Z,70.08
2022-11-14T09:08:13.062Z,72.85
2022-11-14T09:11:05.186Z,73.69
2022-11-14T09:13:51.959Z,71.30
2022-11-14T09:16:37.696Z,69.94
2022-11-14T09:19:23.508Z,69.15
2022-11-14T09:22:09.206Z,68.38
2022-11-14T09:24:55.113Z,72.02
2022-11-14T09:27:40.891Z,73.58
2022-11-14T09:30:26.484Z,70.00
2022-11-14T09:33:12.370Z,69.46
2022-11-14T09:36:02.275Z,68.98
2022-11-14T09:38:47.818Z,73.72
2022-11-14T09:41:49.250Z,69.05
2022-11-14T09:44:47.330Z,71.44
2022-11-14T09:47:44.448Z,71.40
2022-11-14T09:50:34.797Z,69.60
2022-11-14T09:53:26.339Z,71.60
2022-11-14T09:56:13.530Z,69.98
2022-11-14T09:58:59.350Z,69.10
2022-11-14T10:01:59.991Z,67.48
2022-11-14T10:05:00.027Z,66.20
2022-11-14T10:07:54.105Z,67.07
2022-11-14T10:10:49.279Z,68.00
2022-11-14T10:13:47.650Z,68.76
2022-11-14T10:16:54.654Z,68.66
2022-11-14T10:19:43.033Z,68.19
2022-11-14T10:23:09.167Z,69.43
2022-11-14T10:26:07.775Z,68.67
2022-11-14T10:29:08.463Z,67.79
2022-11-14T10:32:21.976Z,65.57
2022-11-14T10:35:28.718Z,66.04
2022-11-14T10:38:26.435Z,67.67
2022-11-14T10:41:28.477Z,69.10
2022-11-14T10:44:20.924Z,68.78
2022-11-14T10:47:08.943Z,67.15
2022-11-14T10:49:55.476Z,68.50
2022-11-14T10:52:41.831Z,68.47
2022-11-14T10:55:57.474Z,69.31
2022-11-14T10:58:47.319Z,66.59
2022-11-14T11:01:40.630Z,68.64
2022-11-14T11:04:30.543Z,68.29
2022-11-14T11:07:40.472Z,66.06
2022-11-14T11:10:45.312Z,63.82
2022-11-14T11:13:32.226Z,64.12
2022-11-14T11:16:20.357Z,66.06
2022-11-14T11:19:35.382Z,66.51
2022-11-14T11:22:24.068Z,67.46
2022-11-14T11:25:27.084Z,65.75
2022-11-14T11:28:17.890Z,64.42
2022-11-14T11:31:07.966Z,64.76
2022-11-14T11:33:53.765Z,66.15
2022-11-14T11:36:45.576Z,65.55
2022-11-14T11:39:33.423Z,64.58
2022-11-14T11:43:16.768Z,64.86
2022-11-14T11:45:39.398Z,65.52
2022-11-14T11:48:30.541Z,68.24
2022-11-14T11:51:17.844Z,66.58
2022-11-14T11:54:12.843Z,66.30
2022-11-14T11:57:00.997Z,65.45
2022-11-14T11:59:48.827Z,65.87
2022-11-14T12:02:34.921Z,65.24
2022-11-14T12:05:42.512Z,66.04
2022-11-14T12:09:03.955Z,64.29
2022-11-14T12:11:55.090Z,64.15
2022-11-14T12:14:59.928Z,65.22
2022-11-14T12:17:54.864Z,63.68
2022-11-14T12:21:09.979Z,63.87
2022-11-14T12:24:05.505Z,66.53
2022-11-14T12:26:54.365Z,68.75
2022-11-14T12:29:51.394Z,66.26
2022-11-14T12:32:39.968Z,67.65
2022-11-14T12:35:30.639Z,65.48
2022-11-14T12:38:20.615Z,64.15
2022-11-14T12:41:07.970Z,63.25
2022-11-14T12:43:53.943Z,63.95
2022-11-14T12:47:05.870Z,63.96
2022-11-14T12:49:52.676Z,63.19
2022-11-14T12:52:41.054Z,63.89
2022-11-14T12:55:26.788Z,63.78
2022-11-14T12:58:42.580Z,63.09
2022-11-14T13:01:28.736Z,63.10
2022-11-14T13:04:35.698Z,62.54
2022-11-14T13:07:53.972Z,61.61
2022-11-14T13:10:40.409Z,61.42
2022-11-14T13:13:44.710Z,61.13
2022-11-14T13:16:49.654Z,62.66
2022-11-14T13:19:54.112Z,61.55
2022-11-14T13:22:41.096Z,61.24
2022-11-14T13:25:27.273Z,61.16
2022-11-14T13:28:37.974Z,61.00
2022-11-14T13:31:25.477Z,60.67
2022-11-14T13:34:30.404Z,60.55
2022-11-14T13:37:40.438Z,61.80
2022-11-14T13:40:38.235Z,61.58
2022-11-14T13:43:33.266Z,60.02
2022-11-14T13:46:25.484Z,61.26
2022-11-14T13:49:29.666Z,61.80
2022-11-14T13:52:15.634Z,62.48
2022-11-14T13:55:01.560Z,60.91
2022-11-14T13:58:06.949Z,62.04
2022-11-14T14:00:59.535Z,62.33
2022-11-14T14:04:01.527Z,62.58
2022-11-14T14:07:26.276Z,62.40
2022-11-14T14:10:47.755Z,61.37
2022-11-14T14:14:04.682Z,60.83
2022-11-14T14:16:58.680Z,61.69
2022-11-14T14:19:51.670Z,60.45
2022-11-14T14:22:52.944Z,59.91
2022-11-14T14:25:58.712Z,60.04
2022-11-14T14:28:50.347Z,60.31
2022-11-14T14:31:40.426Z,59.41
2022-11-14T14:34:30.205Z,59.78
2022-11-14T14:37:26.116Z,59.43
2022-11-14T14:40:22.482Z,59.25
2022-11-14T14:43:12.641Z,58.61
2022-11-14T14:45:58.707Z,59.21
2022-11-14T14:48:44.632Z,60.08
2022-11-14T14:51:34.987Z,60.63
2022-11-14T14:54:25.446Z,61.25
2022-11-14T14:57:17.141Z,61.84
2022-11-14T15:00:08.325Z,61.75
2022-11-14T15:02:54.585Z,62.59
2022-11-14T15:05:40.233Z,63.13
2022-11-14T15:08:25.911Z,62.79
2022-11-14T15:11:12.472Z,62.59
2022-11-14T15:13:58.557Z,63.17
2022-11-14T15:16:45.204Z,63.11
2022-11-14T15:19:37.701Z,62.85
2022-11-14T15:22:25.066Z,63.25
2022-11-14T15:25:10.683Z,63.22
2022-11-14T15:28:00.209Z,63.58
2022-11-14T15:30:59.544Z,63.66
2022-11-14T15:33:45.311Z,63.66
2022-11-14T15:36:30.977Z,64.59
2022-11-14T15:39:27.553Z,64.16
2022-11-14T15:42:28.317Z,64.09
2022-11-14T15:45:27.915Z,63.96
2022-11-14T15:48:15.720Z,64.47
2022-11-14T15:51:01.446Z,65.13
2022-11-14T15:53:49.145Z,66.15
2022-11-14T15:56:35.252Z,66.11
2022-11-14T15:59:21.215Z,65.00
2022-11-14T16:02:13.040Z,65.30
2022-11-14T16:04:59.150Z,65.17
2022-11-14T16:07:44.894Z,65.11
2022-11-14T16:10:30.697Z,65.53
2022-11-14T16:13:16.392Z,65.47
2022-11-14T16:16:02.188Z,65.52
2022-11-14T16:18:47.841Z,65.71
2022-11-14T16:21:33.572Z,65.97
2022-11-14T16:24:21.671Z,66.18
2022-11-14T16:27:07.445Z,66.37
2022-11-14T16:29:53.667Z,66.46
2022-11-14T16:32:40.326Z,66.48
2022-11-14T16:35:26.439Z,66.64
2022-11-14T16:38:12.774Z,66.83
2022-11-14T16:41:00.380Z,67.15
2022-11-14T16:43:46.399Z,67.67
2022-11-14T16:46:32.216Z,67.50
2022-11-14T16:49:19.567Z,67.21
2022-11-14T16:52:08.559Z,67.59
2022-11-14T16:54:54.499Z,67.71
2022-11-14T16:57:40.401Z,67.91
2022-11-14T17:00:26.080Z,67.89
2022-11-14T17:03:11.985Z,68.05
2022-11-14T17:05:57.922Z,68.14
2022-11-14T17:08:43.605Z,68.45
2022-11-14T17:11:29.410Z,68.43
2022-11-14T17:14:15.315Z,68.41
2022-11-14T17:17:03.946Z,68.80
2022-11-14T17:19:50.027Z,68.61
2022-11-14T17:22:35.815Z,68.58
2022-11-14T17:25:21.501Z,68.68
2022-11-14T17:28:07.387Z,68.55
2022-11-14T17:30:53.045Z,68.78
2022-11-14T17:33:38.668Z,68.70
2022-11-14T17:36:26.153Z,68.73
2022-11-14T17:39:12.011Z,68.98
2022-11-14T17:41:57.660Z,68.59
2022-11-14T17:44:43.398Z,69.03
2022-11-14T17:47:29.192Z,68.83
2022-11-14T17:50:15.257Z,69.64
2022-11-14T17:53:01.133Z,69.10
2022-11-14T17:55:46.896Z,69.28
2022-11-14T17:58:33.209Z,69.47
2022-11-14T18:01:21.200Z,69.46
2022-11-14T18:04:07.283Z,69.10
2022-11-14T18:06:53.309Z,69.46
2022-11-14T18:09:39.216Z,69.60
2022-11-14T18:12:25.080Z,69.23
2022-11-14T18:15:10.872Z,69.57
2022-11-14T18:17:56.465Z,69.56
2022-11-14T18:20:42.161Z,69.95
2022-11-14T18:23:27.875Z,69.89
2022-11-14T18:26:15.576Z,69.77
2022-11-14T18:29:02.327Z,69.74
2022-11-14T18:31:48.481Z,69.49
2022-11-14T18:34:37.003Z,70.17
2022-11-14T18:37:23.242Z,69.97
2022-11-14T18:40:16.150Z,69.71
2022-11-14T18:43:02.712Z,69.69
2022-11-14T18:45:48.398Z,69.88
2022-11-14T18:48:37.840Z,69.93
2022-11-14T18:51:26.519Z,70.15
2022-11-14T18:54:13.460Z,69.25
2022-11-14T18:57:00.192Z,70.03
2022-11-14T18:59:45.828Z,70.03
2022-11-14T19:02:31.590Z,69.30
2022-11-14T19:05:17.752Z,69.28
2022-11-14T19:08:05.257Z,69.58
2022-11-14T19:10:51.118Z,69.41
2022-11-14T19:13:36.947Z,69.77
2022-11-14T19:16:23.021Z,69.07
2022-11-14T19:19:09.050Z,69.77
2022-11-14T19:21:55.185Z,69.92
2022-11-14T19:24:43.085Z,70.10
2022-11-14T19:27:28.738Z,70.03
2022-11-14T19:30:16.490Z,70.11
2022-11-14T19:33:03.344Z,69.99
2022-11-14T19:35:48.952Z,69.61
2022-11-14T19:38:34.720Z,70.00
2022-11-14T19:41:20.757Z,71.09
2022-11-14T19:44:06.549Z,70.70
2022-11-14T19:46:52.486Z,70.53
2022-11-14T19:49:38.256Z,70.89
2022-11-14T19:52:23.949Z,70.14
2022-11-14T19:55:09.675Z,70.47
2022-11-14T19:57:55.422Z,70.81
2022-11-14T20:00:41.237Z,70.52
2022-11-14T20:03:27.086Z,70.48
2022-11-14T20:06:21.753Z,70.44
2022-11-14T20:09:08.895Z,69.58
2022-11-14T20:11:54.655Z,70.04
2022-11-14T20:14:40.230Z,70.09
2022-11-14T20:17:25.961Z,69.84
2022-11-14T20:20:11.581Z,69.58
2022-11-14T20:22:57.229Z,69.48
2022-11-14T20:25:43.242Z,69.53
2022-11-14T20:28:28.964Z,70.55
2022-11-14T20:31:16.345Z,70.01
2022-11-14T20:34:01.994Z,69.99
2022-11-14T20:37:09.773Z,70.10
2022-11-14T20:39:53.328Z,69.99
2022-11-14T20:42:39.022Z,70.56
2022-11-14T20:45:24.959Z,69.83
2022-11-14T20:48:10.544Z,69.70
2022-11-14T20:51:12.878Z,70.17
2022-11-14T20:53:58.604Z,70.24
2022-11-14T20:56:44.679Z,70.08
2022-11-14T20:59:30.723Z,70.07
2022-11-14T21:02:16.442Z,70.03
2022-11-14T21:05:02.647Z,69.96
2022-11-14T21:07:48.236Z,69.98
2022-11-14T21:10:45.777Z,69.86
2022-11-14T21:13:50.366Z,69.52
2022-11-14T21:16:38.628Z,69.66
2022-11-14T21:19:25.323Z,70.02
2022-11-14T21:22:10.912Z,70.36
2022-11-14T21:24:56.787Z,70.22
2022-11-14T21:27:42.674Z,69.94
2022-11-14T21:30:31.038Z,69.41
2022-11-14T21:33:16.891Z,69.82
2022-11-14T21:36:29.678Z,69.57
2022-11-14T21:39:15.036Z,69.77
2022-11-14T21:42:01.465Z,69.27
2022-11-14T21:44:47.006Z,68.73
2022-11-14T21:47:33.717Z,69.26
2022-11-14T21:50:19.611Z,69.75
2022-11-14T21:53:15.891Z,69.62
2022-11-14T21:56:15.578Z,69.87
2022-11-14T21:59:14.238Z,70.10
2022-11-14T22:02:19.163Z,69.54
2022-11-14T22:05:05.164Z,69.54
2022-11-14T22:07:51.015Z,69.61
2022-11-14T22:10:36.761Z,69.31
2022-11-14T22:13:22.453Z,68.65
2022-11-14T22:16:08.722Z,69.50
2022-11-14T22:18:54.618Z,69.53
2022-11-14T22:21:40.464Z,69.06
2022-11-14T22:24:26.501Z,69.39
2022-11-14T22:27:12.208Z,68.74
2022-11-14T22:29:58.074Z,69.36
2022-11-14T22:32:43.747Z,69.02
2022-11-14T22:35:29.456Z,69.85
2022-11-14T22:38:15.652Z,68.88
2022-11-14T22:41:01.633Z,69.86
2022-11-14T22:43:47.751Z,69.58
2022-11-14T22:46:33.529Z,68.58
2022-11-14T22:49:21.243Z,68.56
2022-11-14T22:52:07.392Z,69.20
2022-11-14T22:54:53.135Z,67.85
2022-11-14T22:57:38.651Z,68.68
2022-11-14T23:00:25.437Z,69.63
2022-11-14T23:03:13.034Z,69.53
2022-11-14T23:06:06.683Z,69.48
2022-11-14T23:08:52.730Z,69.83
2022-11-14T23:11:38.815Z,69.89
2022-11-14T23:14:24.531Z,69.44
2022-11-14T23:17:10.112Z,68.71
2022-11-14T23:19:56.417Z,70.21
2022-11-14T23:22:41.962Z,69.90
2022-11-14T23:25:27.733Z,69.92
2022-11-14T23:28:13.450Z,69.67
2022-11-14T23:30:59.413Z,68.37
2022-11-14T23:33:52.614Z,69.13
2022-11-14T23:36:38.454Z,69.55
2022-11-14T23:39:24.208Z,69.90
2022-11-14T23:42:09.911Z,69.42
2022-11-14T23:44:55.897Z,68.87
2022-11-14T23:47:41.573Z,70.54
2022-11-14T23:50:27.307Z,69.43
2022-11-14T23:53:13.324Z,70.75
2022-11-14T23:56:00.041Z,70.86
2022-11-14T23:58:45.814Z,70.10
